Time;durP1;ratioP1;P1;durP2;ratioP2;P2;SDS_P1;SDS_P2;PMS_P1;PMS_P2;Temp;Humidity;BMP_temperature;BMP_pressure;BME280_temperature;BME280_humidity;BME280_pressure;Samples;Min_cycle;Max_cycle;Signal;HPM_P1;HPM_P2
2022/04/25 00:00:55;;;;;;;10.63;6.40;;;9.60;78.00;;;;;;5098368;28;20080;-81
2022/04/25 00:03:21;;;;;;;12.30;8.80;;;9.60;78.20;;;;;;5099226;27;20407;-81
2022/04/25 00:05:47;;;;;;;17.00;8.10;;;9.60;78.20;;;;;;5119193;27;20046;-81
2022/04/25 00:08:12;;;;;;;16.13;8.48;;;9.60;78.30;;;;;;5102225;27;20039;-81
2022/04/25 00:10:38;;;;;;;13.80;6.60;;;9.50;78.30;;;;;;5102632;27;20039;-80
2022/04/25 00:13:04;;;;;;;17.15;8.68;;;9.50;78.20;;;;;;5119205;27;20550;-79
2022/04/25 00:15:29;;;;;;;16.58;7.80;;;9.50;78.90;;;;;;5085221;27;20492;-80
2022/04/25 00:17:55;;;;;;;12.77;6.95;;;9.50;78.40;;;;;;5119403;27;20035;-80
2022/04/25 00:20:21;;;;;;;10.48;6.18;;;9.60;78.40;;;;;;5102283;27;20070;-82
2022/04/25 00:22:47;;;;;;;13.75;7.03;;;9.60;78.40;;;;;;5101934;27;20483;-81
2022/04/25 00:25:13;;;;;;;9.85;6.07;;;9.60;78.30;;;;;;5101597;27;20047;-80
2022/04/25 00:27:39;;;;;;;8.85;5.55;;;9.60;78.30;;;;;;5102266;27;20110;-81
2022/04/25 00:30:06;;;;;;;12.57;5.82;;;9.60;78.50;;;;;;5102138;27;20035;-80
2022/04/25 00:32:32;;;;;;;10.82;6.15;;;9.60;78.20;;;;;;5118872;27;20050;-80
2022/04/25 00:34:58;;;;;;;11.18;5.68;;;9.50;78.90;;;;;;5084799;27;20043;-81
2022/04/25 00:37:23;;;;;;;11.38;5.38;;;9.50;78.40;;;;;;5101703;27;20043;-80
2022/04/25 00:39:49;;;;;;;13.77;6.22;;;9.50;78.50;;;;;;5118743;27;20130;-80
2022/04/25 00:42:15;;;;;;;12.63;5.10;;;9.60;78.50;;;;;;5118641;27;20039;-82
2022/04/25 00:44:41;;;;;;;11.70;5.72;;;9.60;78.70;;;;;;5118835;27;20047;-81
2022/04/25 00:47:09;;;;;;;11.05;5.57;;;9.60;78.40;;;;;;5118761;27;20066;-80
2022/04/25 00:49:35;;;;;;;10.68;5.40;;;9.60;78.30;;;;;;5118528;27;20561;-81
2022/04/25 00:52:00;;;;;;;10.63;5.28;;;9.60;78.60;;;;;;5118768;27;20035;-80
2022/04/25 00:54:26;;;;;;;9.35;5.25;;;9.50;79.10;;;;;;5101588;27;20498;-81
2022/04/25 00:56:52;;;;;;;8.38;5.35;;;9.50;78.40;;;;;;5101283;27;20474;-79
2022/04/25 00:59:21;;;;;;;9.68;5.43;;;9.40;78.40;;;;;;5084776;27;20039;-81
2022/04/25 01:01:47;;;;;;;10.13;5.53;;;9.30;78.60;;;;;;5118539;27;20470;-81
2022/04/25 01:04:13;;;;;;;8.52;5.10;;;9.40;78.40;;;;;;5101112;27;20035;-81
2022/04/25 01:06:40;;;;;;;9.75;5.03;;;9.30;78.60;;;;;;5101609;27;20386;-81
2022/04/25 01:09:06;;;;;;;10.40;5.45;;;9.30;78.30;;;;;;5101022;27;20042;-81
2022/04/25 01:11:32;;;;;;;11.45;5.65;;;9.40;78.00;;;;;;5117873;27;20075;-80
2022/04/25 01:14:09;;;;;;;11.52;5.65;;;9.40;78.20;;;;;;5118010;27;20043;-79
2022/04/25 01:16:34;;;;;;;12.20;5.53;;;9.30;78.80;;;;;;5117265;27;20039;-80
2022/04/25 01:19:00;;;;;;;13.82;6.38;;;9.40;78.30;;;;;;5117995;27;20542;-80
2022/04/25 01:21:26;;;;;;;10.45;5.32;;;9.30;78.60;;;;;;5100954;27;20069;-80
2022/04/25 01:29:20;;;;;;;10.43;5.93;;;9.30;78.90;;;;;;5086700;27;20039;-80
2022/04/25 01:31:46;;;;;;;10.63;6.30;;;9.30;78.80;;;;;;5084007;27;20608;-81
2022/04/25 01:34:12;;;;;;;12.52;6.82;;;9.30;79.30;;;;;;5100699;27;20035;-81
2022/04/25 01:36:37;;;;;;;10.35;6.78;;;9.30;78.90;;;;;;5117881;27;20082;-82
2022/04/25 01:39:03;;;;;;;12.32;6.68;;;9.30;78.40;;;;;;5117908;27;20051;-81
2022/04/25 01:41:28;;;;;;;9.98;7.75;;;9.30;78.40;;;;;;5117648;27;20394;-80
2022/04/25 01:43:54;;;;;;;11.48;7.43;;;9.30;78.10;;;;;;5083395;27;20046;-81
2022/04/25 01:46:20;;;;;;;12.93;8.10;;;9.30;77.60;;;;;;5100512;27;20081;-81
2022/04/25 01:48:45;;;;;;;13.85;7.45;;;9.40;77.50;;;;;;5083865;27;20035;-81
2022/04/25 01:51:11;;;;;;;11.02;6.55;;;9.30;77.40;;;;;;5117214;27;20039;-82
2022/04/25 01:53:37;;;;;;;13.98;6.97;;;9.30;77.30;;;;;;5100516;27;20041;-81
2022/04/25 01:56:03;;;;;;;11.77;6.88;;;9.30;77.20;;;;;;5117188;27;20122;-79
2022/04/25 01:58:30;;;;;;;11.85;6.82;;;9.30;77.20;;;;;;5117169;27;20121;-81
2022/04/25 02:00:55;;;;;;;10.38;6.75;;;9.30;77.20;;;;;;5100315;27;20412;-80
2022/04/25 02:03:21;;;;;;;11.57;6.72;;;9.30;77.30;;;;;;5099946;27;20092;-81
2022/04/25 02:05:47;;;;;;;9.10;6.20;;;9.30;77.40;;;;;;5117271;27;20075;-82
2022/04/25 02:08:12;;;;;;;9.02;5.18;;;9.30;77.20;;;;;;5100037;27;20474;-80
2022/04/25 02:10:38;;;;;;;10.75;6.50;;;9.40;77.40;;;;;;5116976;27;20035;-81
2022/04/25 02:13:04;;;;;;;13.00;7.18;;;9.40;77.00;;;;;;5116900;27;20039;-80
2022/04/25 02:15:30;;;;;;;10.80;6.35;;;9.40;77.20;;;;;;5082952;27;20440;-81
2022/04/25 02:17:55;;;;;;;13.93;6.78;;;9.30;77.30;;;;;;5116753;27;20046;-80
2022/04/25 02:20:21;;;;;;;14.18;6.43;;;9.30;77.40;;;;;;5116847;27;20043;-79
2022/04/25 02:22:48;;;;;;;9.88;6.47;;;9.30;77.40;;;;;;5116817;27;20044;-80
2022/04/25 02:25:13;;;;;;;10.32;6.88;;;9.30;77.40;;;;;;5116462;27;20114;-80
2022/04/25 02:27:39;;;;;;;10.93;6.65;;;9.20;77.50;;;;;;5116523;27;20091;-81
2022/04/25 02:30:05;;;;;;;11.82;7.05;;;9.20;77.50;;;;;;5116937;27;20126;-81
2022/04/25 02:32:31;;;;;;;15.40;8.20;;;9.10;77.60;;;;;;5099547;27;20078;-80
2022/04/25 02:34:59;;;;;;;13.27;8.77;;;9.00;77.80;;;;;;5116374;27;20081;-81
2022/04/25 02:37:25;;;;;;;13.20;7.20;;;9.00;77.80;;;;;;5099746;27;20039;-81
2022/04/25 02:39:51;;;;;;;11.13;7.20;;;9.00;77.90;;;;;;5082867;27;20379;-80
2022/04/25 02:42:20;;;;;;;11.70;6.72;;;8.90;77.80;;;;;;5116455;27;20039;-81
2022/04/25 02:44:45;;;;;;;8.55;6.90;;;8.80;77.90;;;;;;5099854;27;20035;-80
2022/04/25 02:47:11;;;;;;;11.38;7.45;;;8.80;77.80;;;;;;5082321;27;20046;-80
2022/04/25 02:49:37;;;;;;;10.65;6.85;;;8.80;77.80;;;;;;5082318;27;20031;-81
2022/04/25 02:52:03;;;;;;;8.35;6.07;;;8.70;77.70;;;;;;5116142;27;20116;-81
2022/04/25 02:54:28;;;;;;;11.15;7.65;;;8.70;77.80;;;;;;5098951;27;20046;-80
2022/04/25 02:56:55;;;;;;;10.70;7.38;;;8.60;77.70;;;;;;5082275;27;20035;-79
2022/04/25 02:59:21;;;;;;;10.98;7.63;;;8.60;77.70;;;;;;5082345;27;20398;-80
2022/04/25 03:01:47;;;;;;;15.93;6.97;;;8.60;77.70;;;;;;5116043;27;20043;-80
2022/04/25 03:04:12;;;;;;;11.05;6.93;;;8.50;77.90;;;;;;5115758;27;20140;-81
2022/04/25 03:06:38;;;;;;;9.48;7.20;;;8.50;77.80;;;;;;5099036;27;20066;-80
2022/04/25 03:09:05;;;;;;;9.98;6.68;;;8.50;77.70;;;;;;5099090;27;20069;-80
2022/04/25 03:11:30;;;;;;;8.82;6.03;;;8.50;77.80;;;;;;5099090;27;20066;-80
2022/04/25 03:13:56;;;;;;;11.02;7.00;;;8.40;77.90;;;;;;5098914;27;20509;-81
2022/04/25 03:16:22;;;;;;;10.45;6.97;;;8.40;77.80;;;;;;5098843;27;20043;-81
2022/04/25 03:18:48;;;;;;;10.52;7.30;;;8.40;78.00;;;;;;5116055;27;20082;-80
2022/04/25 03:21:14;;;;;;;10.07;7.80;;;8.30;78.00;;;;;;5099027;27;20439;-80
2022/04/25 03:23:39;;;;;;;8.77;5.65;;;8.30;78.00;;;;;;5115537;27;20047;-81
2022/04/25 03:26:06;;;;;;;11.55;7.70;;;8.30;78.10;;;;;;5098502;28;20125;-80
2022/04/25 03:28:33;;;;;;;11.32;7.32;;;8.20;78.10;;;;;;5115702;27;20047;-81
2022/04/25 03:30:58;;;;;;;14.15;7.07;;;8.20;78.20;;;;;;5098702;28;20114;-79
2022/04/25 03:33:25;;;;;;;14.23;7.70;;;8.10;78.20;;;;;;5115767;28;20131;-80
2022/04/25 03:35:51;;;;;;;11.45;6.57;;;8.10;78.30;;;;;;5098938;28;20039;-80
2022/04/25 03:38:21;;;;;;;13.65;7.93;;;8.10;78.30;;;;;;5097931;28;20046;-80
2022/04/25 03:40:47;;;;;;;11.50;7.07;;;8.00;78.50;;;;;;5098709;28;20046;-81
2022/04/25 03:43:15;;;;;;;13.02;7.47;;;8.00;78.60;;;;;;5098524;28;20043;-81
2022/04/25 03:45:41;;;;;;;11.25;8.48;;;8.00;78.80;;;;;;5098978;28;20039;-79
2022/04/25 03:48:07;;;;;;;8.95;7.32;;;8.00;78.70;;;;;;5115452;28;20038;-81
2022/04/25 03:50:33;;;;;;;12.27;7.93;;;7.90;78.80;;;;;;5098538;28;20041;-81
2022/04/25 03:53:08;;;;;;;11.85;7.90;;;7.90;79.20;;;;;;5115453;28;20047;-80
2022/04/25 03:58:19;;;;;;;;;;;7.90;79.30;;;;;;5115803;28;20054;-81
2022/04/25 04:00:45;;;;;;;12.98;6.53;;;7.90;79.40;;;;;;5098309;28;19915;-80
2022/04/25 04:03:12;;;;;;;10.80;7.18;;;8.00;79.20;;;;;;5098346;28;20078;-80
2022/04/25 04:05:40;;;;;;;14.00;7.60;;;7.90;79.80;;;;;;5081670;28;20478;-81
2022/04/25 04:08:06;;;;;;;11.38;7.07;;;8.00;79.50;;;;;;5098224;28;20042;-81
2022/04/25 04:10:32;;;;;;;13.98;7.30;;;8.00;79.80;;;;;;5115143;28;20122;-80
2022/04/25 04:12:59;;;;;;;11.25;7.15;;;8.10;79.60;;;;;;5098144;28;20035;-80
2022/04/25 04:15:25;;;;;;;11.07;7.30;;;8.10;79.70;;;;;;5098352;28;20053;-81
2022/04/25 04:17:51;;;;;;;13.15;7.25;;;8.10;80.70;;;;;;5098350;28;20043;-81
2022/04/25 04:20:16;;;;;;;13.82;7.45;;;8.20;80.10;;;;;;5115081;28;20486;-81
2022/04/25 04:22:42;;;;;;;12.70;7.47;;;8.30;79.90;;;;;;5081385;28;20040;-81
2022/04/25 04:25:12;;;;;;;9.00;6.43;;;8.30;80.70;;;;;;5097591;28;20049;-81
2022/04/25 04:27:41;;;;;;;13.48;7.78;;;8.40;80.00;;;;;;5114461;28;20133;-81
2022/04/25 04:30:12;;;;;;;19.95;8.27;;;8.50;79.60;;;;;;5098770;28;20394;-82
2022/04/25 04:32:40;;;;;;;10.77;6.85;;;8.50;80.00;;;;;;5115089;28;20067;-81
2022/04/25 04:35:11;;;;;;;10.25;6.63;;;8.50;80.00;;;;;;5114965;28;20074;-81
2022/04/25 04:37:38;;;;;;;12.25;6.88;;;8.50;79.50;;;;;;5115365;28;20039;-82
2022/04/25 04:42:50;;;;;;;15.77;9.00;;;8.60;79.30;;;;;;5114854;28;20051;-78
2022/04/25 04:45:16;;;;;;;13.30;7.32;;;8.70;79.30;;;;;;5081382;28;20031;-82
2022/04/25 04:47:42;;;;;;;10.73;7.30;;;8.70;79.50;;;;;;5114787;28;20104;-80
2022/04/25 04:50:14;;;;;;;12.50;7.68;;;8.70;79.30;;;;;;5115345;27;20044;-81
2022/04/25 04:52:44;;;;;;;11.45;7.53;;;8.70;79.30;;;;;;5101824;27;20049;-81
2022/04/25 04:55:11;;;;;;;10.60;6.65;;;8.70;79.10;;;;;;5118354;27;20122;-81
2022/04/25 04:57:37;;;;;;;16.80;7.30;;;8.80;79.30;;;;;;5101683;27;20053;-81
2022/04/25 05:00:05;;;;;;;9.80;6.82;;;8.80;79.50;;;;;;5101338;27;20039;-81
2022/04/25 05:02:32;;;;;;;13.05;7.03;;;8.80;79.30;;;;;;5101218;27;20043;-79
2022/04/25 05:04:57;;;;;;;10.48;7.22;;;8.80;79.40;;;;;;5101530;27;20031;-80
2022/04/25 05:07:23;;;;;;;11.93;7.00;;;8.80;79.10;;;;;;5118488;27;20035;-79
2022/04/25 05:09:49;;;;;;;14.02;7.15;;;8.80;79.40;;;;;;5084435;27;20458;-80
2022/04/25 05:12:15;;;;;;;10.30;6.63;;;8.80;79.10;;;;;;5100785;27;20402;-79
2022/04/25 05:14:40;;;;;;;13.13;7.80;;;8.80;79.00;;;;;;5101158;27;20108;-79
2022/04/25 05:17:06;;;;;;;9.75;7.07;;;8.80;79.10;;;;;;5101138;27;20118;-79
2022/04/25 05:19:32;;;;;;;13.95;7.03;;;8.80;79.20;;;;;;5084415;27;20070;-79
2022/04/25 05:21:57;;;;;;;10.65;7.97;;;8.80;78.80;;;;;;5117951;27;20461;-80
2022/04/25 05:24:23;;;;;;;10.85;7.07;;;8.80;78.80;;;;;;5117805;27;20156;-80
2022/04/25 05:26:49;;;;;;;10.80;7.55;;;8.80;79.30;;;;;;5100598;27;20077;-80
2022/04/25 05:29:14;;;;;;;14.38;7.25;;;8.80;79.40;;;;;;5117823;27;20107;-79
2022/04/25 05:31:40;;;;;;;8.52;7.63;;;8.80;79.30;;;;;;5117796;27;20035;-80
2022/04/25 05:34:06;;;;;;;9.95;7.20;;;8.80;79.20;;;;;;5117668;27;20039;-78
2022/04/25 05:36:31;;;;;;;9.70;6.65;;;8.80;78.80;;;;;;5117570;27;20035;-78
2022/04/25 05:38:57;;;;;;;10.25;6.93;;;8.70;78.90;;;;;;5083727;27;20398;-79
2022/04/25 05:41:23;;;;;;;10.32;7.25;;;8.80;78.70;;;;;;5100856;27;20096;-79
2022/04/25 05:43:49;;;;;;;12.98;7.57;;;8.80;78.70;;;;;;5100513;27;20051;-79
2022/04/25 05:46:15;;;;;;;12.25;7.57;;;8.80;79.20;;;;;;5117408;27;20035;-80
2022/04/25 05:54:10;;;;;;;14.80;8.52;;;8.80;79.20;;;;;;5117168;27;20134;-79
2022/04/25 05:56:36;;;;;;;10.02;6.65;;;8.80;79.10;;;;;;5100275;27;20043;-80
2022/04/25 05:59:02;;;;;;;11.43;6.45;;;8.90;78.70;;;;;;5117314;27;20058;-79
2022/04/25 06:01:30;;;;;;;12.15;6.78;;;8.90;79.00;;;;;;5083029;27;20045;-78
2022/04/25 06:03:56;;;;;;;11.95;8.20;;;8.90;79.00;;;;;;5100334;27;20043;-81
2022/04/25 06:06:23;;;;;;;12.20;7.38;;;9.00;78.80;;;;;;5083303;27;20398;-80
2022/04/25 06:08:50;;;;;;;10.95;7.30;;;9.00;78.70;;;;;;5117350;27;20389;-79
2022/04/25 06:11:15;;;;;;;12.18;9.00;;;9.00;78.60;;;;;;5083550;27;20047;-80
2022/04/25 06:13:44;;;;;;;9.23;6.43;;;9.00;79.00;;;;;;5100210;27;20491;-81
2022/04/25 06:16:11;;;;;;;10.40;7.65;;;9.00;78.90;;;;;;5100322;27;20043;-81
2022/04/25 06:18:36;;;;;;;13.07;7.20;;;9.10;79.10;;;;;;5116819;27;20047;-81
2022/04/25 06:21:02;;;;;;;13.57;7.43;;;9.10;78.80;;;;;;5100172;27;20095;-80
2022/04/25 06:23:28;;;;;;;11.88;7.13;;;9.10;78.60;;;;;;5116820;27;20444;-78
2022/04/25 06:25:54;;;;;;;10.15;6.50;;;9.10;78.50;;;;;;5096257;28;20075;-80
2022/04/25 06:28:20;;;;;;;10.00;7.00;;;9.20;78.40;;;;;;5113206;28;20499;-80
2022/04/25 06:30:46;;;;;;;12.40;7.03;;;9.20;78.50;;;;;;5096150;28;20040;-80
2022/04/25 06:33:12;;;;;;;10.75;7.65;;;9.20;78.40;;;;;;5093426;28;20055;-78
2022/04/25 06:35:37;;;;;;;12.77;7.25;;;9.20;78.30;;;;;;5055056;28;20063;-78
2022/04/25 06:38:03;;;;;;;13.30;7.80;;;9.20;79.00;;;;;;5057778;28;20051;-79
2022/04/25 06:40:29;;;;;;;12.95;7.18;;;9.20;79.50;;;;;;5053959;28;20040;-81
2022/04/25 06:42:56;;;;;;;10.48;7.43;;;9.30;78.60;;;;;;5040871;28;20051;-78
2022/04/25 06:45:22;;;;;;;12.50;7.57;;;9.30;78.30;;;;;;5059041;28;20040;-79
2022/04/25 06:47:48;;;;;;;13.45;8.20;;;9.30;78.90;;;;;;5061104;28;20043;-79
2022/04/25 06:50:13;;;;;;;11.93;7.75;;;9.20;78.90;;;;;;5074234;28;20072;-77
2022/04/25 06:52:40;;;;;;;9.80;6.68;;;9.30;78.70;;;;;;5076679;28;20120;-77
2022/04/25 06:55:07;;;;;;;9.10;6.90;;;9.20;78.90;;;;;;5096836;28;20070;-80
2022/04/25 06:57:33;;;;;;;11.75;7.07;;;9.20;78.60;;;;;;5080015;28;20066;-81
2022/04/25 07:00:11;;;;;;;10.13;6.78;;;9.10;78.70;;;;;;5062414;28;20047;-77
2022/04/25 07:02:37;;;;;;;9.80;7.20;;;9.20;78.80;;;;;;5074867;28;20048;-79
2022/04/25 07:05:07;;;;;;;13.90;6.60;;;9.20;79.00;;;;;;5075997;28;20511;-77
2022/04/25 07:07:33;;;;;;;10.20;6.00;;;9.30;78.90;;;;;;5092961;28;20051;-79
2022/04/25 07:09:59;;;;;;;10.82;6.75;;;9.30;78.60;;;;;;5094355;28;20594;-78
2022/04/25 07:12:25;;;;;;;11.07;5.95;;;9.40;78.60;;;;;;5094373;28;20122;-79
2022/04/25 07:14:50;;;;;;;9.93;5.80;;;9.50;78.30;;;;;;5077212;28;20039;-79
2022/04/25 07:17:16;;;;;;;9.88;6.38;;;9.50;78.00;;;;;;5096816;28;20046;-79
2022/04/25 07:19:42;;;;;;;11.68;7.28;;;9.60;78.00;;;;;;5076456;28;20048;-78
2022/04/25 07:30:21;;;;;;;12.40;7.03;;;9.70;78.00;;;;;;5094809;28;20048;-79
2022/04/25 07:32:47;;;;;;;10.18;5.93;;;9.70;77.40;;;;;;5094231;28;20036;-79
2022/04/25 07:35:13;;;;;;;12.70;6.65;;;9.80;77.10;;;;;;5096483;28;20048;-78
2022/04/25 07:37:39;;;;;;;11.27;6.72;;;9.90;76.90;;;;;;5092312;28;20080;-79
2022/04/25 07:40:10;;;;;;;9.15;6.05;;;9.90;76.60;;;;;;5079552;28;20389;-78
2022/04/25 07:42:38;;;;;;;11.45;6.60;;;10.00;76.50;;;;;;5063014;28;20055;-78
2022/04/25 07:45:04;;;;;;;10.70;6.25;;;10.00;76.70;;;;;;5093123;28;20044;-79
2022/04/25 07:47:31;;;;;;;10.45;5.45;;;10.00;76.90;;;;;;5076968;28;20047;-78
2022/04/25 07:49:57;;;;;;;10.63;6.05;;;10.00;76.70;;;;;;5073075;28;20043;-77
2022/04/25 07:52:23;;;;;;;13.13;6.95;;;10.00;76.60;;;;;;5093136;28;20035;-79
2022/04/25 07:54:49;;;;;;;10.70;7.20;;;10.00;77.00;;;;;;5095851;28;20511;-77
2022/04/25 07:57:15;;;;;;;13.05;6.53;;;10.00;77.10;;;;;;5096088;28;20731;-78
2022/04/25 07:59:40;;;;;;;11.88;7.47;;;10.10;77.10;;;;;;5080416;28;20044;-79
2022/04/25 08:02:07;;;;;;;11.75;7.20;;;10.10;76.80;;;;;;5078881;28;20062;-79
2022/04/25 08:04:33;;;;;;;11.55;7.28;;;10.10;76.80;;;;;;5094252;28;20527;-78
2022/04/25 08:06:58;;;;;;;11.13;6.05;;;10.10;76.10;;;;;;5076878;28;20116;-79
2022/04/25 08:09:24;;;;;;;7.93;6.07;;;10.20;76.50;;;;;;5076820;28;20047;-79
2022/04/25 08:17:56;;;;;;;9.82;6.10;;;10.30;76.50;;;;;;5092657;28;20043;-77
2022/04/25 08:20:04;;;;;;;7.30;5.70;;;10.40;75.70;;;;;;5096369;28;20048;-79
2022/04/25 08:22:30;;;;;;;8.68;6.55;;;10.40;75.40;;;;;;5073540;28;20051;-77
2022/04/25 08:24:56;;;;;;;9.45;6.70;;;10.40;75.20;;;;;;5092909;28;20074;-77
2022/04/25 08:27:21;;;;;;;11.30;6.85;;;10.50;75.50;;;;;;5100976;28;20078;-77
2022/04/25 08:29:48;;;;;;;10.48;6.75;;;10.50;75.50;;;;;;5067551;28;20040;-80
2022/04/25 08:32:14;;;;;;;8.82;6.43;;;10.50;75.00;;;;;;5097801;28;20052;-78
2022/04/25 08:34:40;;;;;;;8.02;6.30;;;10.50;74.60;;;;;;5079257;28;20491;-79
2022/04/25 08:37:05;;;;;;;8.90;5.95;;;10.50;74.50;;;;;;5096614;28;20052;-79
2022/04/25 08:39:31;;;;;;;9.30;5.93;;;10.50;74.80;;;;;;5072596;28;20126;-77
2022/04/25 08:42:01;;;;;;;8.93;6.88;;;10.50;74.80;;;;;;5093626;28;20040;-79
2022/04/25 08:44:27;;;;;;;9.15;6.07;;;10.60;74.80;;;;;;5080851;28;20040;-80
2022/04/25 08:46:55;;;;;;;9.52;6.30;;;10.70;74.30;;;;;;5067654;28;20044;-78
2022/04/25 08:49:22;;;;;;;10.38;6.35;;;10.80;74.20;;;;;;5084480;28;20047;-80
2022/04/25 08:51:48;;;;;;;12.75;5.95;;;10.70;74.00;;;;;;5087005;28;20092;-78
2022/04/25 08:54:15;;;;;;;8.00;5.75;;;10.70;73.40;;;;;;5101845;28;20047;-77
2022/04/25 08:56:42;;;;;;;11.45;5.10;;;10.80;74.00;;;;;;5094944;28;20052;-77
2022/04/25 08:59:09;;;;;;;7.80;5.78;;;11.00;74.00;;;;;;5095728;28;20039;-78
2022/04/25 09:01:35;;;;;;;12.02;6.85;;;11.00;73.50;;;;;;5061852;28;20515;-79
2022/04/25 09:04:03;;;;;;;10.20;5.35;;;11.00;73.90;;;;;;5093056;28;20066;-78
2022/04/25 09:06:28;;;;;;;7.93;5.00;;;11.30;73.80;;;;;;5077320;28;20053;-79
2022/04/25 09:08:54;;;;;;;7.18;5.20;;;11.50;73.30;;;;;;5079796;28;20654;-78
2022/04/25 09:14:05;;;;;;;8.02;5.18;;;11.70;72.70;;;;;;5095473;28;20051;-79
2022/04/25 09:16:31;;;;;;;7.03;5.47;;;11.90;72.60;;;;;;5095625;28;20411;-78
2022/04/25 09:18:57;;;;;;;10.75;5.85;;;12.00;72.20;;;;;;5077670;28;20052;-80
2022/04/25 09:21:24;;;;;;;7.93;5.30;;;12.10;72.10;;;;;;5072880;28;20069;-78
2022/04/25 09:23:54;;;;;;;9.40;5.35;;;12.40;71.80;;;;;;5094412;28;20138;-77
2022/04/25 09:26:28;;;;;;;7.47;5.38;;;12.50;71.70;;;;;;5089490;28;20965;-79
2022/04/25 09:28:57;;;;;;;6.95;4.40;;;12.80;72.00;;;;;;5066736;28;20040;-77
2022/04/25 09:31:26;;;;;;;6.57;4.28;;;13.00;71.20;;;;;;5086587;28;20605;-78
2022/04/25 09:33:53;;;;;;;10.55;5.72;;;13.00;70.20;;;;;;5085266;28;20055;-77
2022/04/25 09:36:21;;;;;;;10.55;5.38;;;13.00;69.70;;;;;;5083566;28;20089;-79
2022/04/25 09:38:47;;;;;;;7.40;4.65;;;12.80;69.20;;;;;;5065514;28;20036;-79
2022/04/25 09:41:15;;;;;;;8.35;5.18;;;12.70;69.60;;;;;;5068029;28;20063;-80
2022/04/25 09:43:44;;;;;;;9.32;4.88;;;12.60;69.90;;;;;;5067823;28;20097;-78
2022/04/25 09:46:15;;;;;;;7.38;4.47;;;12.50;69.80;;;;;;5068567;28;20063;-79
2022/04/25 09:49:01;;;;;;;8.88;5.20;;;12.50;70.00;;;;;;5083826;28;20122;-80
2022/04/25 09:51:26;;;;;;;10.00;4.78;;;12.50;69.90;;;;;;5069433;28;20044;-78
2022/04/25 09:53:54;;;;;;;5.10;4.20;;;12.50;70.20;;;;;;5062395;28;20120;-77
2022/04/25 09:56:26;;;;;;;10.55;5.25;;;12.40;70.10;;;;;;5084422;28;20048;-78
2022/04/25 09:59:05;;;;;;;6.90;4.65;;;12.50;70.60;;;;;;5068050;28;20083;-79
2022/04/25 10:01:34;;;;;;;7.00;4.60;;;12.50;70.60;;;;;;5085061;28;20048;-79
2022/04/25 10:04:01;;;;;;;7.43;5.03;;;12.50;70.60;;;;;;5085944;28;20094;-82
2022/04/25 10:06:32;;;;;;;6.20;4.60;;;12.50;70.00;;;;;;5084939;28;20408;-79
2022/04/25 10:09:00;;;;;;;9.75;4.32;;;12.50;70.30;;;;;;5067773;28;20043;-77
2022/04/25 10:11:32;;;;;;;7.22;4.40;;;12.50;70.30;;;;;;5086024;28;20050;-78
2022/04/25 10:13:58;;;;;;;8.68;4.30;;;12.30;70.20;;;;;;5085416;28;20063;-77
2022/04/25 10:16:25;;;;;;;7.03;4.32;;;12.30;70.60;;;;;;5084806;28;20685;-78
2022/04/25 10:18:51;;;;;;;9.35;5.15;;;12.30;70.70;;;;;;5082628;28;20458;-80
2022/04/25 10:21:17;;;;;;;12.35;4.03;;;12.30;70.80;;;;;;5068915;28;20044;-80
2022/04/25 10:23:46;;;;;;;6.93;3.92;;;12.30;71.10;;;;;;5068599;28;20048;-80
2022/04/25 10:26:14;;;;;;;8.40;4.18;;;12.30;71.00;;;;;;5089584;28;20115;-79
2022/04/25 10:28:55;;;;;;;6.18;4.13;;;12.20;71.30;;;;;;5078039;28;20071;-80
2022/04/25 10:31:30;;;;;;;8.60;4.05;;;12.10;71.50;;;;;;5098754;28;20048;-80
2022/04/25 10:33:58;;;;;;;7.63;3.78;;;12.10;71.60;;;;;;5097429;28;20078;-78
2022/04/25 10:36:36;;;;;;;7.25;4.00;;;12.10;71.60;;;;;;5096061;28;20051;-79
2022/04/25 10:39:12;;;;;;;8.63;3.90;;;12.00;71.40;;;;;;5077369;28;20040;-77
2022/04/25 10:44:25;;;;;;;5.93;3.20;;;12.10;71.50;;;;;;5093690;28;20952;-77
2022/04/25 10:47:06;;;;;;;8.10;4.10;;;12.20;70.90;;;;;;5094701;28;20043;-82
2022/04/25 10:49:38;;;;;;;9.18;4.50;;;12.30;71.10;;;;;;5081554;28;20074;-76
2022/04/25 10:52:07;;;;;;;5.40;3.63;;;12.30;71.00;;;;;;5079634;28;20093;-79
2022/04/25 10:54:51;;;;;;;7.15;4.32;;;12.40;71.00;;;;;;5077906;28;20399;-76
2022/04/25 10:57:18;;;;;;;6.50;3.13;;;12.70;70.90;;;;;;5093753;28;20511;-80
2022/04/25 10:59:44;;;;;;;7.63;3.60;;;12.80;70.50;;;;;;5079293;28;20044;-77
2022/04/25 11:02:24;;;;;;;5.95;3.65;;;12.90;70.20;;;;;;5076520;28;20047;-76
2022/04/25 11:05:12;;;;;;;16.98;6.50;;;13.10;69.50;;;;;;5091341;28;20059;-79
2022/04/25 11:07:40;;;;;;;8.07;3.58;;;13.60;69.10;;;;;;5093814;28;20042;-77
2022/04/25 11:10:07;;;;;;;6.38;3.90;;;14.00;68.10;;;;;;5095875;28;20118;-79
2022/04/25 11:12:56;;;;;;;6.20;3.60;;;14.10;67.40;;;;;;5096917;28;20552;-79
2022/04/25 11:15:42;;;;;;;8.50;3.60;;;14.40;66.50;;;;;;5094125;28;20044;-81
2022/04/25 11:18:23;;;;;;;6.93;3.78;;;14.60;66.30;;;;;;5094563;28;20439;-78
2022/04/25 11:20:57;;;;;;;6.68;3.45;;;14.90;65.40;;;;;;5091856;28;20048;-77
2022/04/25 11:23:29;;;;;;;6.00;3.13;;;15.10;65.00;;;;;;5075393;28;20052;-77
2022/04/25 11:25:56;;;;;;;5.80;3.80;;;15.30;64.20;;;;;;5076415;28;20059;-77
2022/04/25 11:28:22;;;;;;;6.88;3.63;;;15.50;64.00;;;;;;5094606;28;20056;-78
2022/04/25 11:31:14;;;;;;;4.68;3.20;;;15.50;62.90;;;;;;5096518;28;20067;-78
2022/04/25 11:33:47;;;;;;;6.15;3.30;;;15.50;61.50;;;;;;5083759;28;20092;-77
2022/04/25 11:36:14;;;;;;;5.13;2.78;;;15.30;61.80;;;;;;5076221;28;20040;-77
2022/04/25 11:41:31;;;;;;;6.57;3.17;;;15.20;63.90;;;;;;5093956;28;20055;-78
2022/04/25 11:44:00;;;;;;;8.55;4.35;;;15.00;63.50;;;;;;5076805;28;20437;-76
2022/04/25 11:46:27;;;;;;;9.05;3.80;;;14.70;64.10;;;;;;5097058;28;20051;-78
2022/04/25 11:48:55;;;;;;;7.57;4.03;;;14.60;64.70;;;;;;5096002;28;20213;-79
2022/04/25 11:51:26;;;;;;;8.43;4.43;;;14.40;65.30;;;;;;5077279;28;20062;-77
2022/04/25 11:53:53;;;;;;;9.23;4.03;;;14.10;65.70;;;;;;5074360;28;20609;-76
2022/04/25 11:56:19;;;;;;;7.63;4.18;;;14.10;66.30;;;;;;5093984;28;20692;-78
2022/04/25 11:58:45;;;;;;;8.05;4.13;;;14.00;66.60;;;;;;5092928;28;20044;-76
2022/04/25 12:01:11;;;;;;;7.05;4.18;;;13.90;66.50;;;;;;5098719;28;20048;-78
2022/04/25 12:03:37;;;;;;;7.43;4.15;;;13.90;66.60;;;;;;5074308;28;20547;-76
2022/04/25 12:06:13;;;;;;;9.00;4.55;;;13.70;66.70;;;;;;5081159;28;20523;-78
2022/04/25 12:17:04;;;;;;;8.88;4.78;;;13.50;68.00;;;;;;5081957;28;20060;-78
2022/04/25 12:19:30;;;;;;;10.07;5.32;;;13.50;67.90;;;;;;5078723;28;20047;-80
2022/04/25 12:22:03;;;;;;;10.40;4.47;;;13.50;68.20;;;;;;5082166;28;20059;-77
2022/04/25 12:24:29;;;;;;;9.32;4.13;;;13.50;68.40;;;;;;5097547;28;20043;-76
2022/04/25 12:26:55;;;;;;;9.82;4.03;;;13.70;68.40;;;;;;5078327;28;20918;-78
2022/04/25 12:29:21;;;;;;;11.23;4.53;;;13.80;68.30;;;;;;5051373;28;20404;-77
2022/04/25 12:31:48;;;;;;;5.97;3.60;;;14.00;68.30;;;;;;5085150;28;20036;-78
2022/04/25 12:34:16;;;;;;;6.45;3.42;;;14.00;67.50;;;;;;5077986;28;20052;-77
2022/04/25 12:36:54;;;;;;;9.48;4.07;;;14.30;67.60;;;;;;5057334;28;20079;-78
2022/04/25 12:39:20;;;;;;;7.07;4.40;;;14.40;66.80;;;;;;5060083;28;20387;-78
2022/04/25 12:41:57;;;;;;;7.55;4.13;;;14.50;66.80;;;;;;5056650;28;20036;-78
2022/04/25 12:44:24;;;;;;;10.00;4.32;;;14.50;66.90;;;;;;5077999;28;20127;-78
2022/04/25 12:46:52;;;;;;;8.20;4.32;;;14.50;66.50;;;;;;5084209;28;20039;-77
2022/04/25 12:49:32;;;;;;;9.02;4.43;;;14.60;66.70;;;;;;5077521;28;20048;-77
2022/04/25 12:51:59;;;;;;;10.10;4.00;;;14.60;65.50;;;;;;5062743;28;20093;-79
2022/04/25 12:54:30;;;;;;;6.80;4.55;;;14.70;66.00;;;;;;5077893;28;20048;-76
2022/04/25 12:57:20;;;;;;;7.47;4.80;;;14.80;66.10;;;;;;5074978;28;20055;-80
2022/04/25 12:59:52;;;;;;;6.53;3.72;;;15.00;65.80;;;;;;5059201;28;20051;-78
2022/04/25 13:02:19;;;;;;;6.80;3.47;;;15.20;65.10;;;;;;5077901;28;20075;-78
2022/04/25 13:05:02;;;;;;;5.80;3.38;;;15.20;64.60;;;;;;5076328;28;20039;-79
2022/04/25 13:07:43;;;;;;;8.02;4.00;;;15.20;64.50;;;;;;5078423;28;20044;-78
2022/04/25 13:10:14;;;;;;;7.05;3.65;;;15.20;64.30;;;;;;5059253;28;20124;-79
2022/04/25 13:12:44;;;;;;;7.90;3.90;;;15.10;64.10;;;;;;5060303;28;20032;-80
2022/04/25 13:15:13;;;;;;;4.93;3.45;;;15.10;63.90;;;;;;5060396;28;20034;-78
2022/04/25 13:17:40;;;;;;;4.75;3.78;;;15.20;64.30;;;;;;5073781;28;20036;-79
2022/04/25 13:20:09;;;;;;;6.57;3.78;;;15.20;64.10;;;;;;5080166;28;20056;-79
2022/04/25 13:22:35;;;;;;;6.68;3.95;;;15.20;62.80;;;;;;5074171;28;20044;-80
2022/04/25 13:25:01;;;;;;;11.25;3.58;;;15.00;63.00;;;;;;5044722;28;20048;-77
2022/04/25 13:27:26;;;;;;;7.30;3.65;;;14.90;63.60;;;;;;5065724;28;20063;-79
2022/04/25 13:29:52;;;;;;;8.40;3.35;;;14.70;64.20;;;;;;5069395;28;20054;-79
2022/04/25 13:32:18;;;;;;;6.82;2.78;;;14.60;64.50;;;;;;5085783;28;20510;-77
2022/04/25 13:34:44;;;;;;;9.18;3.50;;;14.60;64.60;;;;;;5086522;28;20040;-80
2022/04/25 13:37:11;;;;;;;9.80;3.25;;;14.50;64.50;;;;;;5082920;28;20130;-78